Time;durP1;ratioP1;P1;durP2;ratioP2;P2;SDS_P1;SDS_P2;PMS_P1;PMS_P2;Temp;Humidity;BMP_temperature;BMP_pressure;BME280_temperature;BME280_humidity;BME280_pressure;Samples;Min_cycle;Max_cycle;Signal;HPM_P1;HPM_P2
2023/01/19 00:01:37;;;;;;;0.75;0.75;;;;;;;-146.30;100.00;58188.94;10427643;28;20052;-78
2023/01/19 00:06:39;;;;;;;1.45;0.68;;;;;;;-146.30;100.00;58188.94;10418346;28;20040;-80
2023/01/19 00:11:40;;;;;;;0.43;0.43;;;;;;;-146.30;100.00;58188.94;10440739;28;20053;-79
2023/01/19 00:16:42;;;;;;;0.28;0.15;;;;;;;-146.30;100.00;58188.94;10428258;28;20068;-80
2023/01/19 00:21:44;;;;;;;1.75;1.20;;;;;;;-146.30;100.00;58188.94;10433497;28;20424;-80
2023/01/19 00:26:46;;;;;;;24.58;1.15;;;;;;;-146.30;100.00;58188.94;10431268;28;20042;-80
2023/01/19 00:31:47;;;;;;;2.97;1.20;;;;;;;-146.30;100.00;58188.94;10414067;28;20064;-80
2023/01/19 00:36:49;;;;;;;0.10;0.10;;;;;;;-146.30;100.00;58188.94;10400680;28;20037;-80
2023/01/19 00:47:11;;;;;;;0.15;0.15;;;;;;;-146.30;100.00;58188.94;10438866;28;20141;-79
2023/01/19 00:52:12;;;;;;;0.10;0.10;;;;;;;-146.30;100.00;58188.94;10425603;28;20561;-79
2023/01/19 00:57:14;;;;;;;2.17;0.70;;;;;;;-146.30;100.00;58188.94;10416603;28;20104;-80
2023/01/19 01:02:16;;;;;;;0.75;0.75;;;;;;;-146.30;100.00;58188.94;10415284;28;20068;-79
2023/01/19 01:07:18;;;;;;;0.00;0.00;;;;;;;-146.30;100.00;58188.94;10403993;28;20646;-84
2023/01/19 01:12:19;;;;;;;1.58;0.77;;;;;;;-146.30;100.00;58188.94;10441892;28;20076;-86
2023/01/19 01:17:23;;;;;;;0.40;0.40;;;;;;;-146.30;100.00;58188.94;10430343;28;20155;-87
2023/01/19 01:22:25;;;;;;;0.75;0.75;;;;;;;-146.30;100.00;58188.94;10445278;28;20128;-86
2023/01/19 01:27:27;;;;;;;0.47;0.43;;;;;;;-146.30;100.00;58188.94;10423502;28;20544;-86
2023/01/19 01:32:29;;;;;;;0.35;0.35;;;;;;;-146.30;100.00;58188.94;10417098;28;20137;-86
2023/01/19 01:37:30;;;;;;;1.90;0.63;;;;;;;-146.30;100.00;58188.94;10431486;28;20585;-83
2023/01/19 01:42:36;;;;;;;0.10;0.10;;;;;;;-146.30;100.00;58188.94;10450854;28;20041;-87
2023/01/19 01:47:43;;;;;;;0.30;0.30;;;;;;;-146.30;100.00;58188.94;10414308;28;20095;-82
2023/01/19 01:52:54;;;;;;;0.63;0.63;;;;;;;-146.30;100.00;58188.94;10427511;28;20042;-81
2023/01/19 01:58:10;;;;;;;0.93;0.63;;;;;;;-146.30;100.00;58188.94;10393415;28;20045;-82
2023/01/19 02:03:12;;;;;;;0.15;0.10;;;;;;;-146.30;100.00;58188.94;10397464;28;20916;-82
2023/01/19 02:13:54;;;;;;;21.60;0.87;;;;;;;-146.30;100.00;58188.94;10411353;28;20057;-82
2023/01/19 02:18:56;;;;;;;0.47;0.40;;;;;;;-146.30;100.00;58188.94;10401483;28;20037;-82
2023/01/19 02:23:59;;;;;;;0.73;0.73;;;;;;;-146.30;100.00;58188.94;10400664;28;20543;-82
2023/01/19 02:29:06;;;;;;;1.17;0.90;;;;;;;-146.30;100.00;58188.94;10413350;28;20506;-83
2023/01/19 02:34:14;;;;;;;1.60;1.50;;;;;;;-146.30;100.00;58188.94;10431830;28;20098;-82
2023/01/19 02:39:21;;;;;;;0.60;0.60;;;;;;;-146.30;100.00;58188.94;10421040;28;20072;-82
2023/01/19 02:44:26;;;;;;;0.15;0.15;;;;;;;-146.30;100.00;58188.94;10409172;28;20049;-82
2023/01/19 02:49:31;;;;;;;0.43;0.43;;;;;;;-146.30;100.00;58188.94;10448369;28;20057;-82
2023/01/19 02:54:55;;;;;;;0.10;0.10;;;;;;;-146.30;100.00;58188.94;10438460;28;20061;-83
2023/01/19 03:00:13;;;;;;;0.45;0.45;;;;;;;-146.30;100.00;58188.94;10383897;28;20046;-82
2023/01/19 03:05:36;;;;;;;0.80;0.70;;;;;;;-146.30;100.00;58188.94;10405148;28;20120;-83
2023/01/19 03:10:53;;;;;;;2.10;1.13;;;;;;;-146.30;100.00;58188.94;10385452;28;20136;-82
2023/01/19 03:16:04;;;;;;;2.50;0.75;;;;;;;-146.30;100.00;58188.94;10425109;28;20386;-82
2023/01/19 03:21:08;;;;;;;0.30;0.30;;;;;;;-146.30;100.00;58188.94;10423444;28;20079;-83
2023/01/19 03:26:14;;;;;;;0.00;0.00;;;;;;;-146.30;100.00;58188.94;10420019;28;20140;-83
2023/01/19 03:31:20;;;;;;;0.45;0.30;;;;;;;-146.30;100.00;58188.94;10411964;28;20477;-83
2023/01/19 03:36:30;;;;;;;0.00;0.00;;;;;;;-146.30;100.00;58188.94;10429018;28;20410;-78
2023/01/19 03:41:35;;;;;;;4.00;3.72;;;;;;;-146.30;100.00;58188.94;10420394;28;20091;-79
2023/01/19 03:46:37;;;;;;;0.00;0.00;;;;;;;-146.30;100.00;58188.94;10403518;28;20065;-78
2023/01/19 03:51:39;;;;;;;0.32;0.32;;;;;;;-146.30;100.00;58188.94;10419844;28;20496;-80
2023/01/19 03:56:42;;;;;;;0.00;0.00;;;;;;;-146.30;100.00;58188.94;10419704;28;20436;-79
2023/01/19 04:01:45;;;;;;;0.00;0.00;;;;;;;-146.30;100.00;58188.94;10419952;28;20493;-80
2023/01/19 04:06:47;;;;;;;0.63;0.38;;;;;;;-146.30;100.00;58188.94;10418992;28;20048;-79
2023/01/19 04:11:48;;;;;;;0.52;0.52;;;;;;;-146.30;100.00;58188.94;10419349;28;20457;-80
2023/01/19 04:16:50;;;;;;;0.00;0.00;;;;;;;-146.30;100.00;58188.94;10418876;28;20069;-79
2023/01/19 04:21:55;;;;;;;0.00;0.00;;;;;;;-146.30;100.00;58188.94;10418750;28;20493;-78
2023/01/19 04:26:57;;;;;;;0.08;0.08;;;;;;;-146.30;100.00;58188.94;10418384;28;20041;-78
2023/01/19 04:31:59;;;;;;;0.15;0.15;;;;;;;-146.30;100.00;58188.94;10375126;28;20053;-78
2023/01/19 04:37:01;;;;;;;0.08;0.08;;;;;;;-146.30;100.00;58188.94;10419268;28;20053;-79
2023/01/19 04:42:03;;;;;;;0.00;0.00;;;;;;;-146.30;100.00;58188.94;10406021;28;20095;-78
2023/01/19 04:47:06;;;;;;;0.55;0.40;;;;;;;-146.30;100.00;58188.94;10420441;28;20068;-84
2023/01/19 04:52:07;;;;;;;0.00;0.00;;;;;;;-146.30;100.00;58188.94;10433920;28;20501;-83
2023/01/19 04:57:09;;;;;;;0.00;0.00;;;;;;;-146.30;100.00;58188.94;10421624;28;20493;-84
2023/01/19 05:02:11;;;;;;;0.10;0.10;;;;;;;-146.30;100.00;58188.94;10417417;28;20546;-84
2023/01/19 05:07:13;;;;;;;0.00;0.00;;;;;;;-146.30;100.00;58188.94;10426016;28;20160;-83
2023/01/19 05:12:15;;;;;;;0.00;0.00;;;;;;;-146.30;100.00;58188.94;10428130;28;20100;-84
2023/01/19 05:17:16;;;;;;;0.13;0.13;;;;;;;-146.30;100.00;58188.94;10422364;28;20038;-86
2023/01/19 05:22:18;;;;;;;0.00;0.00;;;;;;;-146.30;100.00;58188.94;10422072;28;20045;-85
2023/01/19 05:27:19;;;;;;;0.05;0.05;;;;;;;-146.30;100.00;58188.94;10403015;28;20048;-85
2023/01/19 05:32:21;;;;;;;0.00;0.00;;;;;;;-146.30;100.00;58188.94;10417668;28;20052;-85
2023/01/19 05:37:23;;;;;;;0.00;0.00;;;;;;;-146.30;100.00;58188.94;10404451;28;20132;-84
2023/01/19 05:42:24;;;;;;;0.00;0.00;;;;;;;-146.30;100.00;58188.94;10405093;28;20099;-83
2023/01/19 05:47:28;;;;;;;0.00;0.00;;;;;;;-146.30;100.00;58188.94;10406444;28;20476;-85
2023/01/19 05:52:32;;;;;;;0.00;0.00;;;;;;;-146.30;100.00;58188.94;10429142;28;20045;-85
2023/01/19 05:57:34;;;;;;;0.80;0.80;;;;;;;-146.30;100.00;58188.94;10405522;28;20120;-85
2023/01/19 06:02:35;;;;;;;0.45;0.43;;;;;;;-146.30;100.00;58188.94;10393107;28;20055;-84
2023/01/19 06:07:38;;;;;;;0.00;0.00;;;;;;;-146.30;100.00;58188.94;10414558;28;20136;-84
2023/01/19 06:12:42;;;;;;;0.05;0.03;;;;;;;-146.30;100.00;58188.94;10430881;28;20053;-86
2023/01/19 06:17:52;;;;;;;0.00;0.00;;;;;;;-146.30;100.00;58188.94;10400644;28;20042;-86
2023/01/19 06:22:56;;;;;;;0.00;0.00;;;;;;;-146.30;100.00;58188.94;10414274;28;20046;-84
2023/01/19 06:27:58;;;;;;;0.00;0.00;;;;;;;-146.30;100.00;58188.94;10400262;28;20128;-84
2023/01/19 06:32:59;;;;;;;0.00;0.00;;;;;;;-146.30;100.00;58188.94;10447566;28;20054;-82
2023/01/19 06:38:08;;;;;;;0.08;0.08;;;;;;;-146.30;100.00;58188.94;10419944;28;20436;-85
2023/01/19 06:43:09;;;;;;;0.00;0.00;;;;;;;-146.30;100.00;58188.94;10412278;28;20046;-86
2023/01/19 06:48:11;;;;;;;0.00;0.00;;;;;;;-146.30;100.00;58188.94;10422038;28;20447;-88
2023/01/19 06:53:21;;;;;;;0.00;0.00;;;;;;;-146.30;100.00;58188.94;10425305;28;20053;-86
2023/01/19 06:58:22;;;;;;;0.00;0.00;;;;;;;-146.30;100.00;58188.94;10443861;28;20044;-86
2023/01/19 07:03:24;;;;;;;0.32;0.30;;;;;;;-146.30;100.00;58188.94;10442523;28;20584;-87
2023/01/19 07:08:25;;;;;;;0.10;0.10;;;;;;;-146.30;100.00;58188.94;10442749;28;20033;-87
2023/01/19 07:13:32;;;;;;;0.82;0.20;;;;;;;-146.30;100.00;58188.94;10431694;28;20072;-86
2023/01/19 07:18:35;;;;;;;0.00;0.00;;;;;;;-146.30;100.00;58188.94;10422536;28;20058;-86
2023/01/19 07:23:37;;;;;;;0.15;0.15;;;;;;;-146.30;100.00;58188.94;10420722;28;20104;-85
2023/01/19 07:28:38;;;;;;;0.00;0.00;;;;;;;-146.30;100.00;58188.94;10447849;28;20083;-86
2023/01/19 07:33:40;;;;;;;0.00;0.00;;;;;;;-146.30;100.00;58188.94;10396700;28;20049;-86
2023/01/19 07:38:42;;;;;;;0.00;0.00;;;;;;;-146.30;100.00;58188.94;10412384;28;20068;-85
2023/01/19 07:43:43;;;;;;;0.40;0.30;;;;;;;-146.30;100.00;58188.94;10398569;28;20144;-85
2023/01/19 07:48:46;;;;;;;0.00;0.00;;;;;;;-146.30;100.00;58188.94;10402347;28;20084;-86
2023/01/19 07:53:51;;;;;;;0.00;0.00;;;;;;;-146.30;100.00;58188.94;10409661;28;20041;-88
2023/01/19 07:58:52;;;;;;;0.00;0.00;;;;;;;-146.30;100.00;58188.94;10390490;28;20748;-86
2023/01/19 08:03:54;;;;;;;0.25;0.25;;;;;;;-146.30;100.00;58188.94;10419867;28;20115;-87
2023/01/19 08:08:56;;;;;;;0.00;0.00;;;;;;;-146.30;100.00;58188.94;10418983;28;20096;-87
2023/01/19 08:13:59;;;;;;;0.00;0.00;;;;;;;-146.30;100.00;58188.94;10413128;28;20137;-85
2023/01/19 08:19:00;;;;;;;0.00;0.00;;;;;;;-146.30;100.00;58188.94;10444339;28;20047;-87
2023/01/19 08:24:02;;;;;;;16.90;1.48;;;;;;;-146.30;100.00;58188.94;10418680;28;20049;-86
2023/01/19 08:29:04;;;;;;;0.00;0.00;;;;;;;-146.30;100.00;58188.94;10414772;28;20535;-86
2023/01/19 08:34:07;;;;;;;0.10;0.05;;;;;;;-146.30;100.00;58188.94;10415709;28;20104;-87
2023/01/19 08:39:11;;;;;;;0.52;0.28;;;;;;;-146.30;100.00;58188.94;10409182;28;20084;-86
2023/01/19 08:44:12;;;;;;;0.00;0.00;;;;;;;-146.30;100.00;58188.94;10414446;28;20120;-86
2023/01/19 08:49:14;;;;;;;0.00;0.00;;;;;;;-146.30;100.00;58188.94;10415978;28;20049;-87
2023/01/19 08:54:16;;;;;;;0.00;0.00;;;;;;;-146.30;100.00;58188.94;10414490;28;20049;-87
2023/01/19 08:59:19;;;;;;;0.15;0.15;;;;;;;-146.30;100.00;58188.94;10427768;28;20049;-88
2023/01/19 09:04:20;;;;;;;0.20;0.20;;;;;;;-146.30;100.00;58188.94;10423978;28;20563;-86
2023/01/19 09:09:22;;;;;;;0.00;0.00;;;;;;;-146.30;100.00;58188.94;10400804;28;20050;-85
2023/01/19 09:14:23;;;;;;;0.00;0.00;;;;;;;-146.30;100.00;58188.94;10417110;28;20231;-82
2023/01/19 09:19:25;;;;;;;0.28;0.28;;;;;;;-146.30;100.00;58188.94;10417825;28;20037;-82
2023/01/19 09:24:27;;;;;;;0.40;0.20;;;;;;;-146.30;100.00;58188.94;10412068;28;20046;-83
2023/01/19 09:29:29;;;;;;;0.60;0.40;;;;;;;-146.30;100.00;58188.94;10413940;28;20050;-82
2023/01/19 09:34:30;;;;;;;1.33;1.13;;;;;;;-146.30;100.00;58188.94;10395577;28;20497;-82
2023/01/19 09:39:32;;;;;;;0.00;0.00;;;;;;;-146.30;100.00;58188.94;10413366;28;20125;-82
2023/01/19 09:44:34;;;;;;;2.00;0.77;;;;;;;-146.30;100.00;58188.94;10391735;28;20470;-82
2023/01/19 09:49:42;;;;;;;0.52;0.25;;;;;;;-146.30;100.00;58188.94;10408810;28;20047;-82
2023/01/19 09:54:55;;;;;;;0.20;0.20;;;;;;;-146.30;100.00;58188.94;10410677;28;20588;-82
2023/01/19 09:59:58;;;;;;;0.00;0.00;;;;;;;-146.30;100.00;58188.94;10414137;28;20033;-82
2023/01/19 10:05:24;;;;;;;0.10;0.10;;;;;;;-146.30;100.00;58188.94;10404969;28;20049;-81
2023/01/19 10:10:27;;;;;;;0.00;0.00;;;;;;;-146.30;100.00;58188.94;10412032;28;20044;-81
2023/01/19 10:15:38;;;;;;;0.17;0.17;;;;;;;-146.30;100.00;58188.94;10408081;28;20064;-82
2023/01/19 10:20:46;;;;;;;2.65;2.00;;;;;;;-146.30;100.00;58188.94;10411105;28;20053;-81
2023/01/19 10:25:49;;;;;;;0.10;0.10;;;;;;;-146.30;100.00;58188.94;10399598;28;20247;-82
2023/01/19 10:30:53;;;;;;;13.07;1.42;;;;;;;-146.30;100.00;58188.94;10408386;28;20045;-82
2023/01/19 10:35:55;;;;;;;0.00;0.00;;;;;;;-146.30;100.00;58188.94;10396806;28;20401;-81
2023/01/19 10:41:03;;;;;;;0.00;0.00;;;;;;;-146.30;100.00;58188.94;10418513;28;20524;-82
2023/01/19 10:46:31;;;;;;;3.97;1.33;;;;;;;-146.30;100.00;58188.94;10420015;28;20144;-82
2023/01/19 10:51:47;;;;;;;0.00;0.00;;;;;;;-146.30;100.00;58188.94;10440461;28;20068;-82
2023/01/19 10:56:55;;;;;;;0.05;0.05;;;;;;;-146.30;100.00;58188.94;10410727;28;20045;-82
2023/01/19 11:02:16;;;;;;;10.05;0.80;;;;;;;-146.30;100.00;58188.94;10418790;28;20045;-82
2023/01/19 11:07:18;;;;;;;0.73;0.55;;;;;;;-146.30;100.00;58188.94;10416752;28;20468;-83
2023/01/19 11:12:22;;;;;;;0.40;0.30;;;;;;;-146.30;100.00;58188.94;10426654;28;20049;-82
2023/01/19 11:17:24;;;;;;;0.38;0.32;;;;;;;-146.30;100.00;58188.94;10414032;28;20045;-82
2023/01/19 11:22:31;;;;;;;0.08;0.00;;;;;;;-146.30;100.00;58188.94;10437541;28;20127;-82
2023/01/19 11:27:36;;;;;;;0.20;0.20;;;;;;;-146.30;100.00;58188.94;10409939;28;20128;-82
2023/01/19 11:32:38;;;;;;;2.25;1.25;;;;;;;-146.30;100.00;58188.94;10399788;28;20096;-81
2023/01/19 11:37:41;;;;;;;0.40;0.40;;;;;;;-146.30;100.00;58188.94;10438635;28;20049;-81
2023/01/19 11:42:43;;;;;;;0.10;0.10;;;;;;;-146.30;100.00;58188.94;10415766;28;20057;-81
2023/01/19 11:47:51;;;;;;;0.00;0.00;;;;;;;-146.30;100.00;58188.94;10428683;28;20123;-81
2023/01/19 11:53:05;;;;;;;23.70;1.65;;;;;;;-146.30;100.00;58188.94;10443033;28;20029;-86
2023/01/19 11:58:14;;;;;;;14.23;1.80;;;;;;;-146.30;100.00;58188.94;10436489;28;20054;-85
2023/01/19 12:03:22;;;;;;;0.10;0.10;;;;;;;-146.30;100.00;58188.94;10445742;28;20140;-86
2023/01/19 12:08:29;;;;;;;0.60;0.60;;;;;;;-146.30;100.00;58188.94;10436206;28;20064;-86
2023/01/19 12:13:34;;;;;;;3.58;0.30;;;;;;;-146.30;100.00;58188.94;10420898;28;20124;-85
2023/01/19 12:18:44;;;;;;;0.25;0.10;;;;;;;-146.30;100.00;58188.94;10409963;28;20409;-86
2023/01/19 12:23:58;;;;;;;0.82;0.40;;;;;;;-146.30;100.00;58188.94;10395447;28;20080;-86
2023/01/19 12:29:12;;;;;;;6.60;0.45;;;;;;;-146.30;100.00;58188.94;10401808;28;20489;-85
2023/01/19 12:34:30;;;;;;;0.10;0.10;;;;;;;-146.30;100.00;58188.94;10408907;28;20420;-85
2023/01/19 12:39:34;;;;;;;0.98;0.47;;;;;;;-146.30;100.00;58188.94;10418702;28;20083;-87
2023/01/19 12:44:37;;;;;;;0.35;0.35;;;;;;;-146.30;100.00;58188.94;10430759;28;20140;-86
2023/01/19 12:49:47;;;;;;;0.52;0.43;;;;;;;-146.30;100.00;58188.94;10410361;28;20468;-86
2023/01/19 12:54:53;;;;;;;0.55;0.55;;;;;;;-146.30;100.00;58188.94;10419039;28;20107;-85
2023/01/19 12:59:58;;;;;;;1.00;0.85;;;;;;;-146.30;100.00;58188.94;10418888;28;20049;-87
2023/01/19 13:05:05;;;;;;;0.80;0.77;;;;;;;-146.30;100.00;58188.94;10418018;28;20045;-83
2023/01/19 13:10:45;;;;;;;0.20;0.20;;;;;;;-146.30;100.00;58188.94;10419213;28;20053;-83
2023/01/19 13:15:46;;;;;;;3.20;0.47;;;;;;;-146.30;100.00;58188.94;10409635;28;20056;-84
2023/01/19 13:21:07;;;;;;;1.08;0.88;;;;;;;-146.30;100.00;58188.94;10425848;28;20091;-83
2023/01/19 13:26:14;;;;;;;1.33;0.88;;;;;;;-146.30;100.00;58188.94;10431895;28;20471;-82
2023/01/19 13:31:16;;;;;;;0.73;0.57;;;;;;;-146.30;100.00;58188.94;10446729;28;20049;-82
2023/01/19 13:36:26;;;;;;;0.40;0.40;;;;;;;-146.30;100.00;58188.94;10415316;28;20041;-83
2023/01/19 13:41:37;;;;;;;0.50;0.28;;;;;;;-146.30;100.00;58188.94;10410664;28;20148;-82
2023/01/19 13:46:39;;;;;;;3.33;1.15;;;;;;;-146.30;100.00;58188.94;10404212;28;20408;-84
2023/01/19 13:51:41;;;;;;;4.70;2.45;;;;;;;-146.30;100.00;58188.94;10433865;28;20606;-83
2023/01/19 13:56:49;;;;;;;4.47;0.85;;;;;;;-146.30;100.00;58188.94;10400219;28;20033;-83
2023/01/19 14:01:52;;;;;;;2.10;1.45;;;;;;;-146.30;100.00;58188.94;10450710;28;20049;-84
2023/01/19 14:07:24;;;;;;;0.32;0.20;;;;;;;-146.30;100.00;58188.94;10394722;28;20144;-84
2023/01/19 14:12:26;;;;;;;0.20;0.10;;;;;;;-146.30;100.00;58188.94;10414594;28;20119;-85
2023/01/19 14:17:28;;;;;;;0.13;0.13;;;;;;;-146.30;100.00;58188.94;10411535;28;20075;-84
2023/01/19 14:22:40;;;;;;;1.25;0.75;;;;;;;-146.30;100.00;58188.94;10415241;28;20042;-85
2023/01/19 14:27:42;;;;;;;0.82;0.43;;;;;;;-146.30;100.00;58188.94;10422477;28;20045;-84
2023/01/19 14:32:46;;;;;;;6.90;1.15;;;;;;;-146.30;100.00;58188.94;10416271;28;20045;-86
2023/01/19 14:37:51;;;;;;;3.13;1.73;;;;;;;-146.30;100.00;58188.94;10415116;28;20715;-84
2023/01/19 14:42:56;;;;;;;0.52;0.52;;;;;;;-146.30;100.00;58188.94;10393005;28;20057;-85
2023/01/19 14:48:04;;;;;;;0.40;0.40;;;;;;;-146.30;100.00;58188.94;10407915;28;20041;-86
2023/01/19 14:53:15;;;;;;;0.00;0.00;;;;;;;-146.30;100.00;58188.94;10400975;28;20417;-85
2023/01/19 14:58:20;;;;;;;0.25;0.25;;;;;;;-146.30;100.00;58188.94;10403304;28;20136;-85
2023/01/19 15:03:22;;;;;;;1.50;0.85;;;;;;;-146.30;100.00;58188.94;10389809;28;20134;-85
2023/01/19 15:08:40;;;;;;;0.20;0.20;;;;;;;-146.30;100.00;58188.94;10408972;28;20123;-84
2023/01/19 15:13:43;;;;;;;1.65;1.55;;;;;;;-146.30;100.00;58188.94;10413578;28;20563;-86
2023/01/19 15:18:45;;;;;;;0.00;0.00;;;;;;;-146.30;100.00;58188.94;10405351;28;20091;-84
2023/01/19 15:23:46;;;;;;;0.00;0.00;;;;;;;-146.30;100.00;58188.94;10409553;28;20049;-84
2023/01/19 15:28:49;;;;;;;0.10;0.10;;;;;;;-146.30;100.00;58188.94;10395835;28;20053;-85
2023/01/19 15:33:51;;;;;;;1.17;0.75;;;;;;;-146.30;100.00;58188.94;10395007;28;20489;-85
2023/01/19 15:38:54;;;;;;;4.78;0.68;;;;;;;-146.30;100.00;58188.94;10403160;28;20030;-84
2023/01/19 15:43:56;;;;;;;0.90;0.15;;;;;;;-146.30;100.00;58188.94;10413815;28;20231;-85
2023/01/19 15:48:59;;;;;;;1.35;0.57;;;;;;;-146.30;100.00;58188.94;10412169;28;20592;-86
2023/01/19 15:54:01;;;;;;;0.00;0.00;;;;;;;-146.30;100.00;58188.94;10407269;28;20055;-86
2023/01/19 15:59:02;;;;;;;0.00;0.00;;;;;;;-146.30;100.00;58188.94;10397182;28;20121;-85
2023/01/19 16:04:06;;;;;;;0.00;0.00;;;;;;;-146.30;100.00;58188.94;10402994;28;20508;-86
2023/01/19 16:09:07;;;;;;;0.13;0.13;;;;;;;-146.30;100.00;58188.94;10409381;28;20112;-86
2023/01/19 16:14:09;;;;;;;0.28;0.20;;;;;;;-146.30;100.00;58188.94;10415030;28;20053;-86
2023/01/19 16:19:13;;;;;;;2.67;1.25;;;;;;;-146.30;100.00;58188.94;10448817;28;20065;-85
2023/01/19 16:24:16;;;;;;;0.30;0.30;;;;;;;-146.30;100.00;58188.94;10394936;28;20050;-87
2023/01/19 16:29:18;;;;;;;1.55;0.85;;;;;;;-146.30;100.00;58188.94;10404159;28;20045;-85
2023/01/19 16:34:21;;;;;;;0.73;0.73;;;;;;;-146.30;100.00;58188.94;10409783;28;20550;-86
2023/01/19 16:39:22;;;;;;;0.43;0.43;;;;;;;-146.30;100.00;58188.94;10419178;28;20046;-86
2023/01/19 16:44:24;;;;;;;0.00;0.00;;;;;;;-146.30;100.00;58188.94;10421763;28;20475;-86
2023/01/19 16:49:26;;;;;;;0.00;0.00;;;;;;;-146.30;100.00;58188.94;10429348;28;20042;-85
2023/01/19 16:54:29;;;;;;;0.00;0.00;;;;;;;-146.30;100.00;58188.94;10410492;28;20104;-84
2023/01/19 16:59:31;;;;;;;0.28;0.28;;;;;;;-146.30;100.00;58188.94;10414275;28;20045;-86
2023/01/19 17:04:37;;;;;;;0.38;0.38;;;;;;;-146.30;100.00;58188.94;10399714;28;20073;-85
2023/01/19 17:09:40;;;;;;;0.03;0.03;;;;;;;-146.30;100.00;58188.94;10407467;28;20052;-86
2023/01/19 17:15:09;;;;;;;4.30;1.85;;;;;;;-146.30;100.00;58188.94;10397574;28;20071;-85
2023/01/19 17:20:18;;;;;;;1.30;1.20;;;;;;;-146.30;100.00;58188.94;10388076;28;20447;-85
2023/01/19 17:25:20;;;;;;;0.43;0.43;;;;;;;-146.30;100.00;58188.94;10420411;28;20526;-86
2023/01/19 17:30:22;;;;;;;0.40;0.40;;;;;;;-146.30;100.00;58188.94;10409943;28;20490;-86
2023/01/19 17:35:28;;;;;;;0.35;0.35;;;;;;;-146.30;100.00;58188.94;10393131;28;20042;-86
2023/01/19 17:40:30;;;;;;;0.00;0.00;;;;;;;-146.30;100.00;58188.94;10405485;28;20041;-85
2023/01/19 17:45:52;;;;;;;0.70;0.70;;;;;;;-146.30;100.00;58188.94;10411718;28;20049;-85
2023/01/19 17:51:00;;;;;;;0.93;0.70;;;;;;;-146.30;100.00;58188.94;10402770;28;20117;-85
2023/01/19 17:56:06;;;;;;;0.45;0.45;;;;;;;-146.30;100.00;58188.94;10398647;28;20049;-85
2023/01/19 18:01:12;;;;;;;0.50;0.50;;;;;;;-146.30;100.00;58188.94;10410096;28;20080;-84
2023/01/19 18:06:15;;;;;;;0.75;0.75;;;;;;;-146.30;100.00;58188.94;10443192;28;20065;-85
2023/01/19 18:11:18;;;;;;;0.28;0.28;;;;;;;-146.30;100.00;58188.94;10414543;28;20041;-85
2023/01/19 18:16:23;;;;;;;0.47;0.45;;;;;;;-146.30;100.00;58188.94;10404248;28;20050;-85
2023/01/19 18:21:26;;;;;;;1.88;1.17;;;;;;;-146.30;100.00;58188.94;10425259;28;20131;-84
2023/01/19 18:26:30;;;;;;;0.03;0.03;;;;;;;-146.30;100.00;58188.94;10435933;28;20049;-84
2023/01/19 18:31:31;;;;;;;0.80;0.80;;;;;;;-146.30;100.00;58188.94;10415974;28;20049;-84
2023/01/19 18:36:33;;;;;;;0.22;0.22;;;;;;;-146.30;100.00;58188.94;10394379;28;20053;-84
2023/01/19 18:41:40;;;;;;;0.52;0.35;;;;;;;-146.30;100.00;58188.94;10410702;28;20046;-85
2023/01/19 18:46:56;;;;;;;0.40;0.40;;;;;;;-146.30;100.00;58188.94;10411751;28;20362;-84
2023/01/19 18:51:58;;;;;;;0.22;0.22;;;;;;;-146.30;100.00;58188.94;10416742;28;20107;-84
2023/01/19 18:57:00;;;;;;;0.93;0.93;;;;;;;-146.30;100.00;58188.94;10420409;28;20049;-84
2023/01/19 19:02:04;;;;;;;0.13;0.13;;;;;;;-146.30;100.00;58188.94;10425981;28;20116;-84
2023/01/19 19:07:06;;;;;;;0.75;0.75;;;;;;;-146.30;100.00;58188.94;10427889;28;20045;-84
2023/01/19 19:12:08;;;;;;;0.85;0.57;;;;;;;-146.30;100.00;58188.94;10426488;28;20041;-83
2023/01/19 19:17:10;;;;;;;0.30;0.30;;;;;;;-146.30;100.00;58188.94;10427674;28;20045;-79
2023/01/19 19:22:11;;;;;;;0.30;0.30;;;;;;;-146.30;100.00;58188.94;10400977;28;20556;-81
2023/01/19 19:27:13;;;;;;;0.00;0.00;;;;;;;-146.30;100.00;58188.94;10444615;28;20049;-81
2023/01/19 19:32:19;;;;;;;0.15;0.15;;;;;;;-146.30;100.00;58188.94;10407225;28;20041;-80
2023/01/19 19:37:21;;;;;;;0.57;0.57;;;;;;;-146.30;100.00;58188.94;10449742;28;20522;-80
2023/01/19 19:42:23;;;;;;;1.65;1.33;;;;;;;-146.30;100.00;58188.94;10407077;28;20127;-80
2023/01/19 19:47:27;;;;;;;3.17;1.17;;;;;;;-146.30;100.00;58188.94;10422972;28;20041;-80
2023/01/19 19:52:30;;;;;;;1.05;0.98;;;;;;;-146.30;100.00;58188.94;10411421;28;20050;-80
2023/01/19 19:57:32;;;;;;;3.05;0.85;;;;;;;-146.30;100.00;58188.94;10440096;28;20045;-80
2023/01/19 20:02:34;;;;;;;0.65;0.65;;;;;;;-146.30;100.00;58188.94;10427995;28;20049;-84
2023/01/19 20:07:37;;;;;;;0.47;0.47;;;;;;;-146.30;100.00;58188.94;10417782;28;20143;-84
2023/01/19 20:12:39;;;;;;;1.73;1.63;;;;;;;-146.30;100.00;58188.94;10452202;28;20103;-82
2023/01/19 20:17:41;;;;;;;0.90;0.75;;;;;;;-146.30;100.00;58188.94;10428835;28;20374;-83
2023/01/19 20:22:42;;;;;;;1.17;0.80;;;;;;;-146.30;100.00;58188.94;10415320;28;20037;-82
2023/01/19 20:27:44;;;;;;;2.10;1.90;;;;;;;-146.30;100.00;58188.94;10414324;28;20068;-82
2023/01/19 20:32:45;;;;;;;1.73;1.63;;;;;;;-146.30;100.00;58188.94;10414261;28;20045;-82
2023/01/19 20:37:47;;;;;;;3.53;1.88;;;;;;;-146.30;100.00;58188.94;10415414;28;20042;-82
2023/01/19 20:42:49;;;;;;;13.48;1.30;;;;;;;-146.30;100.00;58188.94;10414223;28;20451;-82
2023/01/19 20:47:51;;;;;;;1.65;1.20;;;;;;;-146.30;100.00;58188.94;10439275;28;20057;-82
2023/01/19 20:52:53;;;;;;;1.38;1.27;;;;;;;-146.30;100.00;58188.94;10440548;28;20056;-82
2023/01/19 20:57:54;;;;;;;5.97;1.77;;;;;;;-146.30;100.00;58188.94;10404024;28;20041;-82
2023/01/19 21:02:56;;;;;;;1.25;1.15;;;;;;;-146.30;100.00;58188.94;10426531;28;20091;-83
2023/01/19 21:07:57;;;;;;;1.50;0.88;;;;;;;-146.30;100.00;58188.94;10430347;28;20530;-83
2023/01/19 21:12:59;;;;;;;0.35;0.35;;;;;;;-146.30;100.00;58188.94;10408336;28;20515;-84
2023/01/19 21:18:01;;;;;;;0.40;0.35;;;;;;;-146.30;100.00;58188.94;10433434;28;20040;-83
2023/01/19 21:23:03;;;;;;;0.65;0.65;;;;;;;-146.30;100.00;58188.94;10432452;28;20570;-83
2023/01/19 21:28:04;;;;;;;1.63;0.73;;;;;;;-146.30;100.00;58188.94;10411221;28;20046;-82
2023/01/19 21:33:06;;;;;;;0.35;0.35;;;;;;;-146.30;100.00;58188.94;10393418;28;20103;-83
2023/01/19 21:38:08;;;;;;;0.65;0.65;;;;;;;-146.30;100.00;58188.94;10415877;28;20045;-82
2023/01/19 21:43:11;;;;;;;0.10;0.10;;;;;;;-146.30;100.00;58188.94;10401727;28;20504;-83
2023/01/19 21:48:13;;;;;;;0.88;0.85;;;;;;;-146.30;100.00;58188.94;10407894;28;20488;-83
2023/01/19 21:53:15;;;;;;;1.70;1.60;;;;;;;-146.30;100.00;58188.94;10398263;28;20042;-83
2023/01/19 21:58:17;;;;;;;4.70;1.33;;;;;;;-146.30;100.00;58188.94;10382978;28;20485;-81
2023/01/19 22:03:18;;;;;;;2.30;0.93;;;;;;;-146.30;100.00;58188.94;10403288;28;20045;-80
2023/01/19 22:08:23;;;;;;;0.43;0.43;;;;;;;-146.30;100.00;58188.94;10389990;28;20104;-80
2023/01/19 22:13:25;;;;;;;1.13;0.68;;;;;;;-146.30;100.00;58188.94;10419672;28;20052;-81
2023/01/19 22:18:29;;;;;;;0.98;0.70;;;;;;;-146.30;100.00;58188.94;10403553;28;20042;-78
2023/01/19 22:23:31;;;;;;;1.48;1.08;;;;;;;-146.30;100.00;58188.94;10427809;28;20725;-80
2023/01/19 22:28:36;;;;;;;1.00;1.00;;;;;;;-146.30;100.00;58188.94;10398924;28;20068;-80
2023/01/19 22:33:38;;;;;;;0.50;0.50;;;;;;;-146.30;100.00;58188.94;10407867;28;20045;-80
2023/01/19 22:38:43;;;;;;;4.32;0.73;;;;;;;-146.30;100.00;58188.94;10383518;28;20509;-79
2023/01/19 22:43:47;;;;;;;1.63;1.23;;;;;;;-146.30;100.00;58188.94;10401592;28;20056;-80
2023/01/19 22:48:49;;;;;;;1.13;1.05;;;;;;;-146.30;100.00;58188.94;10393074;28;20041;-80
2023/01/19 22:53:53;;;;;;;0.40;0.40;;;;;;;-146.30;100.00;58188.94;10407001;28;20073;-80
2023/01/19 22:58:56;;;;;;;1.02;0.77;;;;;;;-146.30;100.00;58188.94;10409399;28;20045;-80